Time;durP1;ratioP1;P1;durP2;ratioP2;P2;SDS_P1;SDS_P2;PMS_P1;PMS_P2;Temp;Humidity;BMP_temperature;BMP_pressure;BME280_temperature;BME280_humidity;BME280_pressure;Samples;Min_cycle;Max_cycle;Signal;HPM_P1;HPM_P2
2022/12/30 00:00:57;;;;;;;5.32;1.15;;;;;;;7.17;100.00;100481.16;6173872;28;20499;-72
2022/12/30 00:03:59;;;;;;;7.70;1.50;;;;;;;7.18;100.00;100496.78;6173965;28;20058;-73
2022/12/30 00:07:00;;;;;;;9.02;1.63;;;;;;;7.12;100.00;100497.88;6174125;28;20051;-72
2022/12/30 00:10:02;;;;;;;8.25;1.17;;;;;;;7.04;100.00;100491.28;6173671;28;20691;-72
2022/12/30 00:33:22;;;;;;;4.93;1.50;;;;;;;6.97;100.00;100544.72;6149556;29;20043;-72
2022/12/30 00:36:25;;;;;;;4.35;0.98;;;;;;;6.92;100.00;100550.16;6169452;28;20083;-72
2022/12/30 00:39:27;;;;;;;14.75;0.90;;;;;;;6.89;100.00;100549.41;6173568;28;20043;-72
2022/12/30 00:45:48;;;;;;;4.28;1.27;;;;;;;6.84;100.00;100553.06;6166315;28;20055;-72
2022/12/30 00:58:46;;;;;;;4.22;1.30;;;;;;;6.85;100.00;100564.34;6173324;28;20058;-72
2022/12/30 01:01:49;;;;;;;6.40;1.30;;;;;;;6.90;100.00;100567.63;6173335;28;20061;-73
2022/12/30 01:04:50;;;;;;;6.15;2.38;;;;;;;6.92;100.00;100575.44;6173066;28;20426;-72
2022/12/30 01:07:52;;;;;;;1.90;1.08;;;;;;;6.96;100.00;100571.78;6173100;28;20058;-72
2022/12/30 01:10:53;;;;;;;1.58;0.73;;;;;;;6.94;100.00;100581.41;6173248;28;20051;-72
2022/12/30 01:13:54;;;;;;;9.73;1.38;;;;;;;6.89;100.00;100578.16;6172817;28;20046;-72
2022/12/30 01:16:57;;;;;;;7.50;1.33;;;;;;;6.95;100.00;100585.72;6173259;28;20062;-73
2022/12/30 01:19:58;;;;;;;3.65;0.82;;;;;;;6.91;100.00;100595.47;6172691;28;20400;-73
2022/12/30 01:23:00;;;;;;;3.17;0.90;;;;;;;6.87;100.00;100601.72;6172977;28;20047;-73
2022/12/30 01:26:02;;;;;;;5.38;0.95;;;;;;;6.81;100.00;100623.72;6172873;28;20198;-73
2022/12/30 01:29:03;;;;;;;8.98;1.40;;;;;;;6.88;100.00;100618.25;6172855;28;20407;-74
2022/12/30 01:32:08;;;;;;;12.75;1.27;;;;;;;6.85;100.00;100627.03;6172823;28;20058;-72
2022/12/30 01:35:11;;;;;;;5.82;1.38;;;;;;;6.84;100.00;100639.25;6172938;28;20054;-72
2022/12/30 01:38:12;;;;;;;7.43;1.83;;;;;;;6.83;100.00;100639.34;6172819;28;20051;-72
2022/12/30 01:41:14;;;;;;;3.03;1.17;;;;;;;6.76;100.00;100635.25;6172667;28;20055;-72
2022/12/30 01:44:51;;;;;;;13.05;1.45;;;;;;;6.74;100.00;100642.31;6172585;28;20127;-72
2022/12/30 01:47:59;;;;;;;8.20;1.85;;;;;;;6.76;100.00;100651.75;6174984;28;20046;-72
2022/12/30 01:51:05;;;;;;;8.55;1.80;;;;;;;6.72;100.00;100644.09;6176811;28;20046;-72
2022/12/30 01:54:06;;;;;;;4.93;1.10;;;;;;;6.61;100.00;100654.97;6177011;28;20050;-72
2022/12/30 01:57:08;;;;;;;4.88;1.05;;;;;;;6.60;100.00;100656.75;6176993;28;20054;-72
2022/12/30 02:00:11;;;;;;;1.15;0.75;;;;;;;6.64;100.00;100651.41;6176879;28;20050;-72
2022/12/30 02:03:14;;;;;;;7.82;1.40;;;;;;;6.58;100.00;100657.69;6176890;28;20701;-72
2022/12/30 02:06:21;;;;;;;7.82;1.58;;;;;;;6.66;100.00;100662.63;6176464;28;20123;-72
2022/12/30 02:09:23;;;;;;;4.95;1.95;;;;;;;6.52;100.00;100661.41;6176729;28;20054;-72
2022/12/30 02:12:24;;;;;;;8.00;1.20;;;;;;;6.52;100.00;100665.78;6176399;28;20535;-72
2022/12/30 02:15:29;;;;;;;9.32;1.60;;;;;;;6.53;100.00;100668.31;6176450;28;20053;-72
2022/12/30 02:18:46;;;;;;;3.13;1.33;;;;;;;6.57;100.00;100666.44;6176479;28;20054;-72
2022/12/30 02:22:06;;;;;;;7.38;1.52;;;;;;;6.56;100.00;100669.97;6176035;28;20427;-72
2022/12/30 02:25:28;;;;;;;;;;;;;;;6.48;100.00;100672.00;6176708;28;20046;-72
2022/12/30 02:29:14;;;;;;;4.07;1.23;;;;;;;6.42;100.00;100670.50;6176327;28;20319;-72
2022/12/30 02:32:26;;;;;;;9.93;1.33;;;;;;;6.44;100.00;100684.31;6141110;28;20400;-72
2022/12/30 02:35:36;;;;;;;5.38;1.17;;;;;;;6.35;100.00;100677.69;6175794;28;20073;-72
2022/12/30 02:38:42;;;;;;;2.42;1.05;;;;;;;6.35;100.00;100689.88;6176185;28;20053;-72
2022/12/30 02:45:14;;;;;;;9.57;2.15;;;;;;;6.29;100.00;100700.56;6175436;28;20079;-72
2022/12/30 02:48:20;;;;;;;3.95;0.80;;;;;;;6.34;100.00;100702.09;6176053;28;20057;-73
2022/12/30 02:54:43;;;;;;;8.15;1.67;;;;;;;6.36;100.00;100717.72;6175664;28;20474;-73
2022/12/30 02:57:44;;;;;;;8.20;1.65;;;;;;;6.33;100.00;100721.28;6175291;28;20047;-72
2022/12/30 03:04:29;;;;;;;5.60;1.40;;;;;;;6.31;100.00;100719.59;6174247;28;20502;-72
2022/12/30 03:07:38;;;;;;;4.25;0.88;;;;;;;6.36;100.00;100709.88;6175309;28;20051;-72
2022/12/30 03:14:21;;;;;;;5.72;2.67;;;;;;;6.29;100.00;100726.66;6175152;28;20419;-72
2022/12/30 03:17:26;;;;;;;4.43;0.80;;;;;;;6.23;100.00;100719.06;6175219;28;20047;-72
2022/12/30 03:20:32;;;;;;;5.90;1.13;;;;;;;6.32;100.00;100716.13;6174866;28;20050;-72
2022/12/30 03:27:08;;;;;;;4.57;1.05;;;;;;;6.17;100.00;100722.72;6174991;28;20062;-72
2022/12/30 03:30:10;;;;;;;8.73;1.20;;;;;;;6.17;100.00;100714.88;6174748;28;20141;-73
2022/12/30 03:33:13;;;;;;;5.88;1.45;;;;;;;6.07;100.00;100714.38;6174835;28;20051;-72
2022/12/30 03:36:20;;;;;;;5.63;1.67;;;;;;;6.09;100.00;100717.78;6174497;28;20050;-72
2022/12/30 03:39:29;;;;;;;4.18;1.17;;;;;;;6.04;100.00;100724.06;6174924;28;20043;-72
2022/12/30 03:42:32;;;;;;;13.77;1.52;;;;;;;6.07;100.00;100726.56;6174481;28;20051;-72
2022/12/30 03:45:34;;;;;;;8.02;1.38;;;;;;;6.13;100.00;100734.16;6174288;28;20498;-72
2022/12/30 03:48:35;;;;;;;2.17;0.90;;;;;;;6.05;100.00;100737.06;6174417;28;20062;-72
2022/12/30 03:51:38;;;;;;;4.88;2.17;;;;;;;6.03;100.00;100736.25;6174082;28;20514;-72
2022/12/30 03:54:39;;;;;;;2.42;1.25;;;;;;;6.12;100.00;100735.06;6174316;28;20046;-73
2022/12/30 03:57:40;;;;;;;6.70;1.48;;;;;;;6.13;100.00;100739.38;6174178;28;20050;-72
2022/12/30 04:00:42;;;;;;;4.18;1.08;;;;;;;6.01;100.00;100739.84;6174183;28;20530;-72
2022/12/30 04:03:43;;;;;;;6.00;1.67;;;;;;;6.12;100.00;100747.28;6173759;28;20050;-72
2022/12/30 04:06:46;;;;;;;5.68;1.33;;;;;;;6.08;100.00;100741.31;6174195;28;20510;-72
2022/12/30 04:09:47;;;;;;;9.98;1.40;;;;;;;6.02;100.00;100742.38;6173513;28;20419;-72
2022/12/30 04:12:49;;;;;;;5.10;1.13;;;;;;;5.98;100.00;100748.59;6174109;28;20054;-72
2022/12/30 04:15:51;;;;;;;5.07;1.27;;;;;;;5.96;100.00;100752.19;6173822;28;20050;-72
2022/12/30 04:18:53;;;;;;;4.53;1.50;;;;;;;5.98;100.00;100758.19;6173968;28;20053;-73
2022/12/30 04:21:55;;;;;;;8.93;1.13;;;;;;;5.92;100.00;100755.78;6173721;28;20055;-72
2022/12/30 04:24:57;;;;;;;4.90;1.10;;;;;;;5.91;100.00;100757.53;6173493;28;20062;-72
2022/12/30 04:27:58;;;;;;;14.50;3.65;;;;;;;5.86;100.00;100754.22;6173845;28;20047;-72
2022/12/30 04:30:59;;;;;;;6.85;1.27;;;;;;;5.88;100.00;100761.97;6173522;28;20046;-72
2022/12/30 04:34:01;;;;;;;9.73;1.33;;;;;;;5.96;100.00;100762.63;6173562;28;20050;-72
2022/12/30 04:37:03;;;;;;;4.78;1.75;;;;;;;5.96;100.00;100758.25;6173517;28;20641;-72
2022/12/30 04:40:06;;;;;;;5.40;2.00;;;;;;;6.04;100.00;100763.19;6173448;28;20426;-72
2022/12/30 04:43:07;;;;;;;13.68;1.27;;;;;;;6.00;100.00;100764.22;6173291;28;20058;-73
2022/12/30 04:46:08;;;;;;;8.95;2.13;;;;;;;5.95;100.00;100764.38;6173638;28;20417;-72
2022/12/30 04:49:11;;;;;;;7.25;1.63;;;;;;;5.93;100.00;100771.38;6173459;28;20061;-72
2022/12/30 04:52:13;;;;;;;1.33;0.82;;;;;;;6.00;100.00;100775.50;6173212;28;20522;-72
2022/12/30 04:55:15;;;;;;;8.25;1.58;;;;;;;6.14;100.00;100787.22;6173461;28;20051;-72
2022/12/30 04:58:16;;;;;;;11.75;1.83;;;;;;;6.13;100.00;100793.31;6173310;28;20055;-72
2022/12/30 05:01:18;;;;;;;2.80;0.80;;;;;;;5.99;100.00;100788.56;6173263;28;20053;-72
2022/12/30 05:04:19;;;;;;;4.28;1.25;;;;;;;6.02;100.00;100791.94;6172959;28;20051;-72
2022/12/30 05:07:22;;;;;;;6.30;1.85;;;;;;;5.99;100.00;100781.59;6173426;28;20466;-72
2022/12/30 05:10:24;;;;;;;9.10;1.40;;;;;;;5.98;100.00;100798.16;6173148;28;20058;-73
2022/12/30 05:13:25;;;;;;;2.40;1.33;;;;;;;5.99;100.00;100792.03;6173366;28;20054;-72
2022/12/30 05:16:26;;;;;;;9.05;1.75;;;;;;;5.99;100.00;100784.22;6173044;28;20058;-73
2022/12/30 05:19:28;;;;;;;5.25;1.77;;;;;;;5.99;100.00;100778.13;6173230;28;20522;-72
2022/12/30 05:22:30;;;;;;;4.55;1.67;;;;;;;5.95;100.00;100777.41;6174715;28;20050;-72
2022/12/30 05:28:51;;;;;;;7.85;1.30;;;;;;;6.09;100.00;100792.59;6177648;28;20055;-72
2022/12/30 05:31:52;;;;;;;8.05;1.77;;;;;;;5.94;100.00;100799.16;6177481;28;20517;-72
2022/12/30 05:34:53;;;;;;;7.85;1.30;;;;;;;6.04;100.00;100787.53;6177393;28;20057;-73
2022/12/30 05:37:56;;;;;;;7.25;1.50;;;;;;;5.92;100.00;100792.31;6177338;28;20084;-72
2022/12/30 05:40:58;;;;;;;3.80;1.13;;;;;;;5.87;100.00;100792.44;6177315;28;20057;-72
2022/12/30 05:43:59;;;;;;;3.70;1.30;;;;;;;5.89;100.00;100802.81;6176898;28;20154;-72
2022/12/30 05:47:01;;;;;;;2.65;1.38;;;;;;;5.85;100.00;100792.47;6177358;28;20051;-73
2022/12/30 05:50:02;;;;;;;4.45;1.67;;;;;;;5.80;100.00;100817.00;6176973;28;20055;-72
2022/12/30 05:53:05;;;;;;;2.75;1.73;;;;;;;5.79;100.00;100810.94;6177109;28;20051;-72
2022/12/30 05:56:07;;;;;;;8.55;1.05;;;;;;;5.76;100.00;100815.38;6176909;28;20139;-72
2022/12/30 05:59:09;;;;;;;3.15;1.08;;;;;;;5.76;100.00;100816.22;6177132;28;20066;-72
2022/12/30 06:02:10;;;;;;;2.78;1.70;;;;;;;5.73;100.00;100815.50;6176705;28;20062;-72
2022/12/30 06:05:11;;;;;;;3.67;1.48;;;;;;;5.64;100.00;100819.25;6176771;28;20530;-72
2022/12/30 06:08:14;;;;;;;5.63;1.58;;;;;;;5.63;100.00;100827.94;6176802;28;20050;-72
2022/12/30 06:11:16;;;;;;;13.75;1.75;;;;;;;5.69;100.00;100825.16;6176410;28;20047;-72
2022/12/30 06:14:17;;;;;;;4.90;1.20;;;;;;;5.68;100.00;100825.19;6176459;28;20050;-72
2022/12/30 06:17:18;;;;;;;4.25;1.30;;;;;;;5.65;100.00;100820.94;6176779;28;20144;-72
2022/12/30 06:20:20;;;;;;;6.43;2.08;;;;;;;5.59;100.00;100811.59;6176390;28;20047;-72
2022/12/30 06:23:23;;;;;;;12.52;2.25;;;;;;;5.55;100.00;100817.78;6176271;28;20051;-72
2022/12/30 06:26:25;;;;;;;6.80;1.17;;;;;;;5.48;100.00;100818.00;6176323;28;20054;-72
2022/12/30 06:29:26;;;;;;;5.20;0.98;;;;;;;5.45;100.00;100818.97;6176148;28;20063;-72
2022/12/30 06:32:27;;;;;;;8.90;1.75;;;;;;;5.42;100.00;100813.84;6176090;28;20054;-72
2022/12/30 06:35:29;;;;;;;4.85;0.88;;;;;;;5.40;100.00;100809.56;6175058;28;20050;-72
2022/12/30 06:38:31;;;;;;;6.30;1.58;;;;;;;5.36;100.00;100814.06;6175839;28;20054;-72
2022/12/30 06:41:33;;;;;;;9.15;1.58;;;;;;;5.34;100.00;100811.47;6176073;28;20047;-73
2022/12/30 06:44:34;;;;;;;5.60;1.80;;;;;;;5.34;100.00;100819.28;6175492;28;20047;-73
2022/12/30 06:47:35;;;;;;;8.20;1.27;;;;;;;5.34;100.00;100819.28;6175911;28;20051;-72
2022/12/30 06:50:37;;;;;;;5.88;1.00;;;;;;;5.32;100.00;100815.03;6175637;28;20078;-72
2022/12/30 06:53:40;;;;;;;12.05;1.38;;;;;;;5.37;100.00;100812.28;6175854;28;20070;-72
2022/12/30 06:56:41;;;;;;;7.97;1.20;;;;;;;5.33;100.00;100808.94;6175666;28;20050;-72
2022/12/30 06:59:42;;;;;;;3.47;0.70;;;;;;;5.30;100.00;100816.81;6180079;28;20046;-72
2022/12/30 07:02:44;;;;;;;4.18;0.80;;;;;;;5.23;100.00;100823.16;6175597;28;20057;-72
2022/12/30 07:05:45;;;;;;;4.20;0.82;;;;;;;5.29;100.00;100828.16;6175111;28;20443;-72
2022/12/30 07:08:47;;;;;;;2.65;0.60;;;;;;;5.30;100.00;100820.28;6185111;28;20054;-72
2022/12/30 07:11:49;;;;;;;4.70;1.42;;;;;;;5.29;100.00;100831.59;6185918;28;20395;-72
2022/12/30 07:14:50;;;;;;;2.00;0.80;;;;;;;5.26;100.00;100825.63;6185380;28;20043;-72
2022/12/30 07:17:52;;;;;;;6.15;0.60;;;;;;;5.29;100.00;100823.78;6185821;28;20061;-73
2022/12/30 07:20:53;;;;;;;5.32;1.27;;;;;;;5.30;100.00;100828.09;6185837;28;20422;-73
2022/12/30 07:23:56;;;;;;;1.80;0.82;;;;;;;5.21;100.00;100825.78;6188867;28;20659;-72
2022/12/30 07:26:57;;;;;;;5.95;1.00;;;;;;;5.20;100.00;100834.50;6184208;28;20065;-73
2022/12/30 07:29:58;;;;;;;4.55;0.70;;;;;;;5.31;100.00;100832.44;6186442;28;20058;-72
2022/12/30 07:33:00;;;;;;;4.22;1.13;;;;;;;5.27;100.00;100827.38;6184122;28;20051;-72
2022/12/30 07:36:01;;;;;;;14.75;1.50;;;;;;;5.19;100.00;100831.94;6186067;28;20168;-72
2022/12/30 07:39:04;;;;;;;5.13;0.73;;;;;;;5.17;100.00;100838.94;6184272;28;20050;-72
2022/12/30 07:42:05;;;;;;;6.40;0.77;;;;;;;5.18;100.00;100853.66;6185389;28;20047;-72
2022/12/30 07:45:08;;;;;;;8.38;1.10;;;;;;;5.16;100.00;100851.09;6183811;28;20081;-72
2022/12/30 07:48:10;;;;;;;7.50;0.82;;;;;;;5.19;100.00;100851.03;6185037;28;20355;-72
2022/12/30 07:51:13;;;;;;;5.57;0.90;;;;;;;5.26;100.00;100843.88;6176496;28;20046;-72
2022/12/30 07:54:16;;;;;;;2.92;1.05;;;;;;;5.24;100.00;100832.66;6174257;28;20106;-72
2022/12/30 07:57:17;;;;;;;1.48;0.88;;;;;;;5.20;100.00;100838.84;6174396;28;20055;-73
2022/12/30 08:00:19;;;;;;;1.73;0.50;;;;;;;5.22;100.00;100832.72;6174070;28;20058;-72
2022/12/30 08:03:20;;;;;;;13.75;1.50;;;;;;;5.18;100.00;100833.69;6174206;28;20054;-73
2022/12/30 08:06:22;;;;;;;3.97;1.90;;;;;;;5.17;100.00;100826.75;6173750;28;20054;-73
2022/12/30 08:09:25;;;;;;;3.92;1.23;;;;;;;5.13;100.00;100817.31;6174181;28;20051;-73
2022/12/30 08:12:26;;;;;;;6.18;1.77;;;;;;;5.22;100.00;100822.28;6173774;28;20053;-73
2022/12/30 08:15:27;;;;;;;7.80;1.50;;;;;;;5.31;100.00;100828.94;6173895;28;20051;-73
2022/12/30 08:18:29;;;;;;;2.63;0.75;;;;;;;5.28;100.00;100816.88;6173909;28;20050;-72
2022/12/30 08:21:30;;;;;;;9.57;1.30;;;;;;;5.31;100.00;100819.41;6173738;28;20051;-72
2022/12/30 08:24:33;;;;;;;9.48;1.40;;;;;;;5.31;100.00;100816.81;6173591;28;20051;-73
2022/12/30 08:27:34;;;;;;;2.42;1.25;;;;;;;5.34;100.00;100808.03;6173932;28;20050;-73
2022/12/30 08:30:38;;;;;;;1.88;1.23;;;;;;;5.42;100.00;100815.63;6173598;28;20070;-73
2022/12/30 08:33:40;;;;;;;4.78;2.63;;;;;;;5.43;100.00;100818.16;6173662;28;20061;-73
2022/12/30 08:36:41;;;;;;;3.78;0.85;;;;;;;5.43;100.00;100810.34;6173734;28;20058;-72
2022/12/30 08:39:44;;;;;;;5.70;1.00;;;;;;;5.47;100.00;100811.97;6173420;28;20058;-73
2022/12/30 08:42:45;;;;;;;6.25;1.42;;;;;;;5.50;100.00;100821.44;6173595;28;20057;-72
2022/12/30 08:45:56;;;;;;;13.80;1.40;;;;;;;5.51;100.00;100803.16;6173206;28;20054;-72
2022/12/30 08:48:57;;;;;;;6.63;1.35;;;;;;;5.55;100.00;100806.50;6173720;28;20046;-73
2022/12/30 08:51:58;;;;;;;7.50;1.00;;;;;;;5.55;100.00;100806.50;6173181;28;20513;-73
2022/12/30 08:55:01;;;;;;;4.40;0.95;;;;;;;5.70;100.00;100808.63;6173533;28;20051;-73
2022/12/30 08:58:03;;;;;;;4.25;0.55;;;;;;;5.78;100.00;100806.63;6177356;28;20051;-72
2022/12/30 09:01:09;;;;;;;2.83;0.55;;;;;;;5.81;100.00;100814.34;6178511;28;20050;-73
2022/12/30 09:04:11;;;;;;;5.25;1.30;;;;;;;5.79;100.00;100810.94;6178136;28;20053;-72
2022/12/30 09:07:12;;;;;;;5.20;1.20;;;;;;;5.80;100.00;100814.38;6178273;28;20051;-72
2022/12/30 09:10:15;;;;;;;9.32;0.95;;;;;;;5.90;100.00;100807.09;6178035;28;20053;-72
2022/12/30 09:13:16;;;;;;;6.63;0.80;;;;;;;6.01;100.00;100815.47;6177770;28;20066;-73
2022/12/30 09:16:21;;;;;;;4.05;0.77;;;;;;;5.97;100.00;100804.28;6177942;28;20514;-72
2022/12/30 09:19:22;;;;;;;3.00;0.80;;;;;;;5.99;100.00;100802.47;6177787;28;20057;-72
2022/12/30 09:22:24;;;;;;;2.20;0.98;;;;;;;6.02;100.00;100796.31;6177530;28;20418;-72
2022/12/30 09:25:26;;;;;;;3.92;0.80;;;;;;;6.05;100.00;100799.66;6177579;28;20418;-72
2022/12/30 09:28:28;;;;;;;3.22;0.75;;;;;;;6.12;100.00;100796.84;6177802;28;20415;-73
2022/12/30 09:31:29;;;;;;;3.50;0.85;;;;;;;6.23;100.00;100800.81;6177435;28;20078;-73
2022/12/30 09:34:31;;;;;;;7.15;1.38;;;;;;;6.26;100.00;100797.22;6177719;28;20058;-72
2022/12/30 09:37:32;;;;;;;3.95;1.08;;;;;;;6.26;100.00;100802.44;6175549;28;20057;-73
2022/12/30 09:40:48;;;;;;;8.35;2.30;;;;;;;6.27;100.00;100793.72;6177317;28;20049;-72
2022/12/30 09:44:01;;;;;;;4.75;0.80;;;;;;;6.32;100.00;100799.63;6161735;28;20085;-73
2022/12/30 09:47:10;;;;;;;8.80;1.50;;;;;;;6.40;100.00;100794.97;6177287;28;20051;-73
2022/12/30 09:50:22;;;;;;;4.97;1.17;;;;;;;6.47;100.00;100793.88;6177259;28;20055;-73
2022/12/30 09:53:36;;;;;;;5.30;0.75;;;;;;;6.54;100.00;100782.31;6177118;28;20415;-73
2022/12/30 09:56:42;;;;;;;2.58;0.77;;;;;;;6.59;100.00;100784.75;6172971;28;20047;-72
2022/12/30 09:59:48;;;;;;;2.63;0.75;;;;;;;6.59;100.00;100776.91;6172502;28;20566;-71
2022/12/30 10:02:58;;;;;;;2.80;0.90;;;;;;;6.60;100.00;100768.16;6172907;28;20047;-73
2022/12/30 10:06:06;;;;;;;;;;;;;;;6.65;100.00;100755.78;6173947;28;20514;-73
2022/12/30 10:09:33;;;;;;;0.95;0.50;;;;;;;6.66;100.00;100748.81;6173610;28;19922;-75
2022/12/30 10:12:49;;;;;;;1.70;0.50;;;;;;;6.75;100.00;100740.63;6176066;28;20054;-75
2022/12/30 10:15:56;;;;;;;1.25;0.70;;;;;;;6.72;100.00;100731.16;6168696;28;20054;-75
2022/12/30 10:19:10;;;;;;;1.88;0.68;;;;;;;6.75;100.00;100733.66;6174808;28;20053;-72
2022/12/30 10:22:20;;;;;;;12.23;0.73;;;;;;;6.77;100.00;100728.38;6176238;28;20055;-72
2022/12/30 10:25:28;;;;;;;3.05;1.65;;;;;;;6.77;100.00;100718.78;6174851;28;20055;-72
2022/12/30 10:28:35;;;;;;;6.13;1.10;;;;;;;6.75;100.00;100715.34;6175944;28;20404;-71
2022/12/30 10:31:38;;;;;;;4.78;0.82;;;;;;;6.91;100.00;100701.72;6175304;28;20066;-72
2022/12/30 10:34:40;;;;;;;1.80;0.70;;;;;;;6.94;100.00;100697.22;6175823;28;20051;-72
2022/12/30 10:37:41;;;;;;;5.57;1.13;;;;;;;6.86;100.00;100689.69;6176620;28;20050;-72
2022/12/30 10:40:56;;;;;;;4.32;1.27;;;;;;;6.84;100.00;100681.06;6175775;28;20055;-72
2022/12/30 10:44:12;;;;;;;2.40;0.68;;;;;;;6.82;100.00;100677.66;6176023;28;20422;-72
2022/12/30 10:47:38;;;;;;;0.82;0.50;;;;;;;6.81;100.00;100672.47;6175840;28;20494;-72
2022/12/30 10:50:43;;;;;;;2.05;0.93;;;;;;;6.82;100.00;100669.81;6175849;28;20061;-72
2022/12/30 10:53:47;;;;;;;3.42;0.60;;;;;;;6.75;100.00;100665.75;6175864;28;20055;-72
2022/12/30 10:56:49;;;;;;;4.82;0.93;;;;;;;6.79;100.00;100653.41;6175808;28;20054;-72
2022/12/30 10:59:56;;;;;;;2.53;0.88;;;;;;;6.78;100.00;100655.19;6175506;28;20541;-72
2022/12/30 11:02:59;;;;;;;3.25;1.08;;;;;;;6.90;100.00;100642.53;6175611;28;20537;-72
2022/12/30 11:06:17;;;;;;;7.57;1.45;;;;;;;6.78;100.00;100639.50;6175183;28;20051;-72
2022/12/30 11:09:22;;;;;;;3.22;0.68;;;;;;;6.75;100.00;100631.78;6175672;28;20085;-72
2022/12/30 11:15:55;;;;;;;2.00;0.60;;;;;;;6.85;100.00;100601.78;6175349;28;20054;-72
2022/12/30 11:18:58;;;;;;;1.67;0.43;;;;;;;6.89;100.00;100586.84;6175224;28;20058;-72
2022/12/30 11:22:03;;;;;;;1.80;0.70;;;;;;;6.86;100.00;100580.00;6174328;28;20050;-72
2022/12/30 11:25:17;;;;;;;3.58;0.65;;;;;;;6.86;100.00;100571.31;6175122;28;20057;-72
2022/12/30 11:28:22;;;;;;;1.17;0.43;;;;;;;6.96;100.00;100564.78;6175050;28;20054;-72
2022/12/30 11:31:32;;;;;;;1.00;0.47;;;;;;;6.97;100.00;100552.56;6174988;28;20047;-72
2022/12/30 11:34:35;;;;;;;2.67;0.98;;;;;;;7.07;100.00;100548.66;6174434;28;20050;-72
2022/12/30 11:37:37;;;;;;;2.03;0.90;;;;;;;7.11;100.00;100545.00;6174728;28;20414;-72
2022/12/30 11:40:38;;;;;;;6.18;1.00;;;;;;;7.16;100.00;100532.59;6174611;28;20059;-72
2022/12/30 11:43:49;;;;;;;2.15;0.65;;;;;;;7.16;100.00;100521.28;6318173;28;20363;-73
2022/12/30 11:46:53;;;;;;;9.13;1.33;;;;;;;7.23;100.00;100518.34;6315602;28;20055;-73
2022/12/30 11:49:55;;;;;;;0.63;0.50;;;;;;;7.31;100.00;100502.31;6310880;28;20098;-73
2022/12/30 11:53:01;;;;;;;2.80;0.95;;;;;;;7.37;100.00;100489.84;6311501;28;20047;-73
2022/12/30 11:56:03;;;;;;;0.40;0.40;;;;;;;7.44;100.00;100482.56;6317877;28;20047;-73
2022/12/30 11:59:10;;;;;;;3.28;0.85;;;;;;;7.47;100.00;100466.75;6317699;28;20059;-73
2022/12/30 12:02:19;;;;;;;0.52;0.43;;;;;;;7.42;100.00;100453.03;6315405;28;20051;-73
2022/12/30 12:05:27;;;;;;;3.28;0.60;;;;;;;7.39;100.00;100461.00;6317268;28;20424;-73
2022/12/30 12:08:33;;;;;;;1.98;0.65;;;;;;;7.34;100.00;100442.06;6314801;28;20063;-73
2022/12/30 12:11:40;;;;;;;5.07;0.95;;;;;;;7.38;100.00;100436.63;6317394;28;20138;-73
2022/12/30 12:14:57;;;;;;;0.50;0.50;;;;;;;7.42;100.00;100433.91;6317127;28;20052;-73
2022/12/30 12:18:02;;;;;;;6.05;0.82;;;;;;;7.49;100.00;100428.28;6317735;28;20056;-73
2022/12/30 12:21:11;;;;;;;3.10;1.02;;;;;;;7.47;100.00;100414.47;6316767;28;20055;-73
2022/12/30 12:24:21;;;;;;;0.63;0.50;;;;;;;7.50;100.00;100413.47;6316919;28;20400;-73
2022/12/30 12:27:25;;;;;;;7.93;0.80;;;;;;;7.47;100.00;100418.84;6317261;28;20057;-73
2022/12/30 12:30:43;;;;;;;0.95;0.38;;;;;;;7.57;100.00;100417.50;6317043;28;20044;-73
2022/12/30 12:33:49;;;;;;;9.68;1.23;;;;;;;7.54;100.00;100420.25;6311384;28;20048;-73
2022/12/30 12:37:04;;;;;;;4.65;0.68;;;;;;;7.54;100.00;100408.03;6316540;28;20415;-73
2022/12/30 12:40:29;;;;;;;5.43;1.05;;;;;;;7.47;100.00;100390.09;6316482;28;20055;-73
2022/12/30 12:43:43;;;;;;;1.83;0.60;;;;;;;7.54;100.00;100397.59;6316658;28;20048;-73
2022/12/30 12:47:05;;;;;;;1.27;0.50;;;;;;;7.57;100.00;100389.56;6316851;28;20048;-73
2022/12/30 12:50:27;;;;;;;4.85;1.17;;;;;;;7.56;100.00;100379.19;6316327;28;20052;-73
2022/12/30 12:53:49;;;;;;;3.05;1.25;;;;;;;7.59;100.00;100379.06;6309320;28;20059;-73
2022/12/30 12:56:58;;;;;;;5.60;0.90;;;;;;;7.59;100.00;100368.59;6299630;28;20056;-73
2022/12/30 13:00:08;;;;;;;1.75;0.80;;;;;;;7.54;100.00;100362.72;6299418;28;20056;-73
2022/12/30 13:03:38;;;;;;;2.10;0.93;;;;;;;7.57;100.00;100362.59;6298958;28;20178;-73
2022/12/30 13:06:46;;;;;;;0.75;0.70;;;;;;;7.56;100.00;100356.50;6298844;28;20058;-73
2022/12/30 13:10:04;;;;;;;0.82;0.70;;;;;;;7.57;100.00;100342.50;6299352;28;20056;-73
2022/12/30 13:13:13;;;;;;;2.92;0.55;;;;;;;7.61;100.00;100333.59;6299257;28;20523;-73
2022/12/30 13:16:18;;;;;;;9.93;0.95;;;;;;;7.58;100.00;100328.50;6299281;28;20511;-73
2022/12/30 13:19:27;;;;;;;1.13;0.52;;;;;;;7.62;100.00;100324.81;6299248;28;20059;-73
2022/12/30 13:22:35;;;;;;;5.07;0.70;;;;;;;7.55;100.00;100314.75;6298942;28;20408;-73
2022/12/30 13:25:41;;;;;;;2.17;0.77;;;;;;;7.51;100.00;100302.75;6298957;28;20135;-73
2022/12/30 13:28:47;;;;;;;4.72;0.90;;;;;;;7.47;100.00;100299.41;6299161;28;20049;-73
2022/12/30 13:31:55;;;;;;;10.40;1.30;;;;;;;7.46;100.00;100289.91;6298634;28;20060;-73
2022/12/30 13:35:24;;;;;;;0.80;0.77;;;;;;;7.48;100.00;100277.56;6298938;28;20055;-73
2022/12/30 13:38:38;;;;;;;4.60;1.30;;;;;;;7.46;100.00;100263.75;6298576;28;20415;-73
2022/12/30 13:41:58;;;;;;;2.45;0.80;;;;;;;7.46;100.00;100266.38;6298423;28;20044;-73
2022/12/30 13:45:00;;;;;;;1.83;0.88;;;;;;;7.46;100.00;100252.44;6283830;28;20478;-73
2022/12/30 13:48:06;;;;;;;7.07;0.77;;;;;;;7.45;100.00;100240.28;6298417;28;20493;-73
2022/12/30 13:51:19;;;;;;;2.13;0.68;;;;;;;7.40;100.00;100229.19;6298514;28;20045;-73
2022/12/30 13:54:21;;;;;;;3.17;1.00;;;;;;;7.47;100.00;100214.91;6298216;28;20049;-73
2022/12/30 13:57:31;;;;;;;0.98;0.60;;;;;;;7.46;100.00;100214.06;6298125;28;20048;-73
2022/12/30 14:00:34;;;;;;;1.80;0.60;;;;;;;7.45;100.00;100206.28;6298213;28;20515;-73
2022/12/30 14:03:36;;;;;;;3.92;0.85;;;;;;;7.52;100.00;100194.63;6297871;28;20048;-73
2022/12/30 14:06:44;;;;;;;3.88;0.70;;;;;;;7.56;100.00;100194.41;6297047;28;20052;-73
2022/12/30 14:10:24;;;;;;;1.95;0.55;;;;;;;7.54;100.00;100179.69;6297687;28;20049;-72
2022/12/30 14:13:39;;;;;;;0.50;0.50;;;;;;;7.63;100.00;100172.25;6297550;28;20067;-73
2022/12/30 14:16:48;;;;;;;0.90;0.70;;;;;;;7.62;100.00;100157.47;6282480;28;20055;-73
2022/12/30 14:19:53;;;;;;;3.40;1.00;;;;;;;7.63;100.00;100135.66;6283009;28;20091;-73
2022/12/30 14:23:01;;;;;;;1.70;0.93;;;;;;;7.58;100.00;100132.41;6283482;28;20480;-73
2022/12/30 14:26:38;;;;;;;3.72;0.73;;;;;;;7.58;100.00;100126.31;6277289;28;20055;-73
2022/12/30 14:29:40;;;;;;;0.50;0.40;;;;;;;7.62;100.00;100120.84;6272553;28;20053;-73
2022/12/30 14:32:43;;;;;;;0.90;0.65;;;;;;;7.63;100.00;100111.28;6272527;28;20049;-73
2022/12/30 14:35:51;;;;;;;4.28;0.82;;;;;;;7.67;100.00;100110.16;6272445;28;20493;-73
2022/12/30 14:38:58;;;;;;;1.83;0.70;;;;;;;7.68;100.00;100104.03;6272287;28;20515;-73
2022/12/30 14:42:02;;;;;;;1.23;0.30;;;;;;;7.76;100.00;100106.22;6272135;28;20512;-73
2022/12/30 14:45:18;;;;;;;4.80;0.90;;;;;;;7.86;100.00;100089.16;6272088;28;20041;-73
2022/12/30 14:48:50;;;;;;;1.80;0.50;;;;;;;7.87;100.00;100088.22;6272326;28;20417;-73
2022/12/30 14:51:55;;;;;;;1.90;0.80;;;;;;;7.91;100.00;100081.06;6271598;28;20045;-73
2022/12/30 14:55:09;;;;;;;5.35;0.82;;;;;;;7.89;100.00;100074.13;6271930;28;20099;-73
2022/12/30 14:58:16;;;;;;;4.15;0.57;;;;;;;7.85;100.00;100056.03;6272364;28;20056;-73
2022/12/30 15:01:21;;;;;;;1.17;0.38;;;;;;;7.83;100.00;100061.38;6271731;28;20052;-73
2022/12/30 15:04:24;;;;;;;3.05;0.60;;;;;;;7.89;100.00;100050.56;6271925;28;20071;-73
2022/12/30 15:07:29;;;;;;;2.47;0.93;;;;;;;7.91;100.00;100060.13;6271846;28;20056;-73
2022/12/30 15:10:35;;;;;;;3.35;0.80;;;;;;;7.85;100.00;100046.41;6271787;28;20191;-73
2022/12/30 15:13:41;;;;;;;3.03;0.85;;;;;;;7.84;100.00;100039.50;6280800;28;20059;-73
2022/12/30 15:16:44;;;;;;;2.13;0.55;;;;;;;7.84;100.00;100020.34;6276369;28;20044;-73
2022/12/30 15:19:45;;;;;;;2.08;0.77;;;;;;;7.85;100.00;100022.88;6289633;28;20424;-73